Time;durP1;ratioP1;P1;durP2;ratioP2;P2;SDS_P1;SDS_P2;PMS_P1;PMS_P2;Temp;Humidity;BMP_temperature;BMP_pressure;BME280_temperature;BME280_humidity;BME280_pressure;Samples;Min_cycle;Max_cycle;Signal;HPM_P1;HPM_P2
2022/11/02 00:00:20;;;;;;;16.23;15.23;;;9.70;94.00;;;;;;5030619;28;20463;-75
2022/11/02 00:02:47;;;;;;;16.80;15.70;;;9.80;94.00;;;;;;5026833;28;20468;-76
2022/11/02 00:05:15;;;;;;;20.30;18.73;;;9.70;94.10;;;;;;5031283;28;20483;-76
2022/11/02 00:07:42;;;;;;;20.63;19.43;;;9.70;94.30;;;;;;5028751;28;20547;-76
2022/11/02 00:10:10;;;;;;;31.30;29.63;;;9.70;94.30;;;;;;5030593;28;20973;-76
2022/11/02 00:12:37;;;;;;;15.70;14.33;;;9.80;94.20;;;;;;5028497;28;20467;-76
2022/11/02 00:15:05;;;;;;;15.37;14.37;;;9.70;94.20;;;;;;5030371;28;20569;-76
2022/11/02 00:17:34;;;;;;;15.67;14.50;;;9.70;94.30;;;;;;5031258;28;20460;-76
2022/11/02 00:20:01;;;;;;;14.97;14.17;;;9.70;94.30;;;;;;5025879;28;20461;-76
2022/11/02 00:22:30;;;;;;;15.23;14.20;;;9.80;94.00;;;;;;5030305;28;21109;-76
2022/11/02 00:24:57;;;;;;;20.27;18.63;;;9.80;94.00;;;;;;5030233;28;20481;-76
2022/11/02 00:27:24;;;;;;;16.40;15.33;;;9.80;93.90;;;;;;5032183;28;21455;-75
2022/11/02 00:29:51;;;;;;;15.30;14.30;;;9.80;93.80;;;;;;5031075;28;20550;-76
2022/11/02 00:32:18;;;;;;;15.33;14.43;;;9.90;93.50;;;;;;5025627;28;20548;-76
2022/11/02 00:34:45;;;;;;;15.43;14.10;;;9.80;93.60;;;;;;5029634;28;20555;-76
2022/11/02 00:37:12;;;;;;;16.10;14.60;;;9.80;93.60;;;;;;5030183;28;21004;-76
2022/11/02 00:39:40;;;;;;;15.67;14.70;;;9.80;93.80;;;;;;5028825;28;20943;-76
2022/11/02 00:42:07;;;;;;;15.30;14.00;;;9.80;93.90;;;;;;5027586;28;20549;-75
2022/11/02 00:44:34;;;;;;;15.43;14.33;;;9.80;94.00;;;;;;5031749;28;20551;-75
2022/11/02 00:47:01;;;;;;;15.07;14.17;;;9.80;94.10;;;;;;5030563;28;20495;-76
2022/11/02 00:49:28;;;;;;;15.57;14.43;;;9.90;93.70;;;;;;5028756;28;20803;-76
2022/11/02 00:51:55;;;;;;;14.87;13.77;;;9.90;93.70;;;;;;5029848;28;20549;-76
2022/11/02 00:54:22;;;;;;;15.93;14.70;;;9.90;94.40;;;;;;5024495;28;20578;-76
2022/11/02 00:56:50;;;;;;;14.70;13.80;;;9.90;94.20;;;;;;5029719;28;20582;-76
2022/11/02 00:59:17;;;;;;;14.40;13.30;;;10.00;94.30;;;;;;5026307;28;20462;-76
2022/11/02 01:01:46;;;;;;;15.50;14.17;;;10.10;94.70;;;;;;5031122;28;20550;-76
2022/11/02 01:04:14;;;;;;;14.77;13.70;;;10.10;94.40;;;;;;5026493;28;20455;-76
2022/11/02 01:06:41;;;;;;;15.17;13.90;;;10.10;94.00;;;;;;5027039;28;20518;-76
2022/11/02 01:09:08;;;;;;;15.33;13.90;;;10.10;93.60;;;;;;5026035;28;20487;-76
2022/11/02 01:11:35;;;;;;;14.07;13.10;;;10.00;93.70;;;;;;5029560;28;20470;-76
2022/11/02 01:14:04;;;;;;;14.53;13.40;;;10.10;93.60;;;;;;5028402;28;20562;-75
2022/11/02 01:16:32;;;;;;;14.77;13.90;;;10.10;93.70;;;;;;5027244;28;20487;-76
2022/11/02 01:18:59;;;;;;;14.97;13.97;;;10.10;93.40;;;;;;5026301;28;20456;-76
2022/11/02 01:21:26;;;;;;;15.50;14.33;;;10.10;93.50;;;;;;5030261;28;20495;-75
2022/11/02 01:23:53;;;;;;;15.30;14.30;;;10.10;93.50;;;;;;5025885;28;20466;-76
2022/11/02 01:26:20;;;;;;;15.00;13.80;;;10.20;92.90;;;;;;5028644;28;20609;-76
2022/11/02 01:28:47;;;;;;;14.73;13.73;;;10.20;93.30;;;;;;5024543;28;21160;-76
2022/11/02 01:31:15;;;;;;;14.23;13.37;;;10.20;93.40;;;;;;5026991;28;20876;-76
2022/11/02 01:33:44;;;;;;;14.60;13.70;;;10.20;93.20;;;;;;5027465;28;20863;-76
2022/11/02 01:36:12;;;;;;;15.83;14.33;;;10.20;93.20;;;;;;5026680;28;20495;-76
2022/11/02 01:38:39;;;;;;;15.50;14.20;;;10.20;92.90;;;;;;5022706;28;20466;-76
2022/11/02 01:41:06;;;;;;;14.23;13.53;;;10.20;92.80;;;;;;5026869;28;20487;-76
2022/11/02 01:43:35;;;;;;;14.93;13.63;;;10.30;92.70;;;;;;5027763;28;20497;-76
2022/11/02 01:46:12;;;;;;;15.43;14.37;;;10.30;92.60;;;;;;5026146;28;20570;-76
2022/11/02 01:48:45;;;;;;;15.10;14.20;;;10.40;92.40;;;;;;5022188;28;21048;-76
2022/11/02 01:51:15;;;;;;;14.90;13.80;;;10.40;92.50;;;;;;5027083;28;20470;-75
2022/11/02 01:53:46;;;;;;;15.47;14.47;;;10.40;92.60;;;;;;5024124;28;20513;-75
2022/11/02 01:56:16;;;;;;;14.97;14.07;;;10.40;92.30;;;;;;5027744;28;21028;-75
2022/11/02 01:58:47;;;;;;;14.30;13.50;;;10.50;92.20;;;;;;5023641;28;20577;-75
2022/11/02 02:01:14;;;;;;;15.40;14.30;;;10.50;92.20;;;;;;5024846;28;20599;-75
2022/11/02 02:03:43;;;;;;;14.57;13.57;;;10.50;91.90;;;;;;5027423;28;20599;-75
2022/11/02 02:06:12;;;;;;;14.47;13.47;;;10.50;92.10;;;;;;5026649;28;20511;-75
2022/11/02 02:08:44;;;;;;;14.57;13.60;;;10.50;92.10;;;;;;5024626;28;20472;-75
2022/11/02 02:11:29;;;;;;;15.17;14.07;;;10.60;92.30;;;;;;5026373;28;22050;-75
2022/11/02 02:14:00;;;;;;;14.40;13.50;;;10.60;91.90;;;;;;5028792;28;20484;-75
2022/11/02 02:16:41;;;;;;;15.87;14.83;;;10.70;91.80;;;;;;5026627;28;20999;-75
2022/11/02 02:19:25;;;;;;;14.77;13.97;;;10.70;91.80;;;;;;5026895;28;20543;-75
2022/11/02 02:22:08;;;;;;;15.77;14.97;;;10.70;92.00;;;;;;5026060;28;20466;-75
2022/11/02 02:24:48;;;;;;;15.23;14.27;;;10.60;92.10;;;;;;5020845;28;20547;-75
2022/11/02 02:27:21;;;;;;;14.90;13.63;;;10.70;92.10;;;;;;5021234;28;20548;-75
2022/11/02 02:30:05;;;;;;;16.00;14.57;;;10.80;91.80;;;;;;5028263;28;20547;-76
2022/11/02 02:32:41;;;;;;;15.17;14.03;;;10.80;91.70;;;;;;5026311;28;20538;-76
2022/11/02 02:35:17;;;;;;;15.10;14.20;;;10.80;91.60;;;;;;5025721;28;20560;-75
2022/11/02 02:37:54;;;;;;;14.43;13.40;;;10.80;91.40;;;;;;5025463;28;20580;-75
2022/11/02 02:40:25;;;;;;;14.90;14.10;;;10.80;91.50;;;;;;5027256;28;20550;-76
2022/11/02 02:42:56;;;;;;;14.77;13.87;;;10.70;91.90;;;;;;5026532;28;20548;-75
2022/11/02 02:45:31;;;;;;;15.47;14.40;;;10.80;91.80;;;;;;5024168;28;20900;-76
2022/11/02 02:48:05;;;;;;;15.10;14.17;;;10.80;91.90;;;;;;5023416;28;20900;-75
2022/11/02 02:50:38;;;;;;;15.20;14.20;;;10.80;91.80;;;;;;5026751;28;20953;-76
2022/11/02 02:53:07;;;;;;;14.70;13.80;;;10.70;91.90;;;;;;5028025;28;21043;-76
2022/11/02 02:55:40;;;;;;;15.03;14.17;;;10.70;91.80;;;;;;5023626;28;20906;-76
2022/11/02 02:58:12;;;;;;;15.03;14.23;;;10.70;92.10;;;;;;5026154;28;20543;-76
2022/11/02 03:00:40;;;;;;;15.10;14.30;;;10.80;91.90;;;;;;5026281;28;20606;-76
2022/11/02 03:03:18;;;;;;;15.10;14.17;;;10.80;91.70;;;;;;5024222;28;20540;-75
2022/11/02 03:06:06;;;;;;;14.50;13.60;;;10.80;91.70;;;;;;5018170;28;20479;-75
2022/11/02 03:08:36;;;;;;;13.90;13.03;;;10.80;91.70;;;;;;5025380;28;20464;-75
2022/11/02 03:11:11;;;;;;;16.30;15.30;;;10.70;92.00;;;;;;5026626;28;20559;-75
2022/11/02 03:13:50;;;;;;;14.40;13.50;;;10.70;92.30;;;;;;5016366;28;21138;-75
2022/11/02 03:16:31;;;;;;;15.23;14.23;;;10.60;92.30;;;;;;5025580;28;20587;-75
2022/11/02 03:19:08;;;;;;;14.60;13.60;;;10.70;92.50;;;;;;5024439;28;20587;-75
2022/11/02 03:21:39;;;;;;;14.87;13.90;;;10.70;92.30;;;;;;5027179;28;20542;-75
2022/11/02 03:24:13;;;;;;;21.63;20.30;;;10.80;92.10;;;;;;5024647;28;20464;-75
2022/11/02 03:26:47;;;;;;;17.70;16.60;;;10.80;92.10;;;;;;5025803;28;20479;-75
2022/11/02 03:29:19;;;;;;;14.37;13.30;;;10.80;92.10;;;;;;5025405;28;20554;-75
2022/11/02 03:31:55;;;;;;;16.37;15.47;;;10.90;91.90;;;;;;5024641;28;20460;-75
2022/11/02 03:34:26;;;;;;;15.80;14.73;;;10.80;92.00;;;;;;5026145;28;20562;-75
2022/11/02 03:36:59;;;;;;;15.10;14.00;;;10.80;92.00;;;;;;5027012;28;20556;-75
2022/11/02 03:39:32;;;;;;;15.20;14.33;;;10.90;92.00;;;;;;5024379;28;20704;-75
2022/11/02 03:42:02;;;;;;;16.10;15.20;;;10.90;91.70;;;;;;5026348;28;20460;-75
2022/11/02 03:44:30;;;;;;;16.90;15.80;;;10.90;91.50;;;;;;5023792;28;20455;-76
2022/11/02 03:46:59;;;;;;;14.93;14.03;;;10.90;91.50;;;;;;5023452;28;20480;-76
2022/11/02 03:49:28;;;;;;;15.60;14.40;;;10.90;91.50;;;;;;5026413;28;20456;-76
2022/11/02 03:51:57;;;;;;;15.13;14.30;;;10.90;91.30;;;;;;5025662;28;20467;-76
2022/11/02 03:54:33;;;;;;;15.07;14.03;;;10.90;91.50;;;;;;5023479;28;20476;-75
2022/11/02 03:57:03;;;;;;;32.43;30.43;;;10.90;91.60;;;;;;5018705;28;20481;-76
2022/11/02 03:59:31;;;;;;;16.30;14.93;;;10.90;91.30;;;;;;5026034;28;20542;-75
2022/11/02 04:02:01;;;;;;;18.10;17.20;;;10.90;91.10;;;;;;5026393;28;20459;-76
2022/11/02 04:04:28;;;;;;;15.63;14.83;;;10.90;91.40;;;;;;5024343;28;20452;-76
2022/11/02 04:06:56;;;;;;;32.43;30.83;;;10.80;91.40;;;;;;5023585;28;20456;-76
2022/11/02 04:09:23;;;;;;;16.97;16.10;;;10.80;91.70;;;;;;5025890;28;20503;-76
2022/11/02 04:14:40;;;;;;;16.77;15.57;;;10.80;91.70;;;;;;5024111;28;20478;-76
2022/11/02 04:19:55;;;;;;;16.87;15.60;;;10.80;91.60;;;;;;5018423;28;20487;-76
2022/11/02 04:25:17;;;;;;;20.03;19.00;;;10.80;91.70;;;;;;5024715;28;20471;-76
2022/11/02 04:27:44;;;;;;;15.20;14.17;;;10.80;91.70;;;;;;5024271;28;20459;-76
2022/11/02 04:30:12;;;;;;;16.70;15.83;;;10.80;91.70;;;;;;5025863;28;20462;-76
2022/11/02 04:35:26;;;;;;;24.00;22.30;;;10.80;91.70;;;;;;5027066;28;20833;-76
2022/11/02 04:40:37;;;;;;;17.17;16.20;;;10.70;92.00;;;;;;5026737;28;20514;-76
2022/11/02 04:43:04;;;;;;;18.27;17.27;;;10.60;92.00;;;;;;5028007;28;20456;-76
2022/11/02 04:45:31;;;;;;;23.40;22.10;;;10.60;92.00;;;;;;5028508;28;20562;-76
2022/11/02 04:48:05;;;;;;;25.93;24.43;;;10.50;92.00;;;;;;5025164;28;21268;-76
2022/11/02 04:50:32;;;;;;;23.80;22.60;;;10.60;92.10;;;;;;5028908;28;20527;-75
2022/11/02 04:53:00;;;;;;;20.73;19.43;;;10.50;92.30;;;;;;5027969;28;21219;-76
2022/11/02 04:55:27;;;;;;;18.70;17.57;;;10.50;92.40;;;;;;5028747;28;20504;-76
2022/11/02 04:57:54;;;;;;;20.37;19.07;;;10.50;92.10;;;;;;5027765;28;20464;-76
2022/11/02 05:00:23;;;;;;;33.47;31.70;;;10.50;92.40;;;;;;5029748;28;20481;-76
2022/11/02 05:02:50;;;;;;;27.30;25.80;;;10.40;92.50;;;;;;5025607;28;20975;-75
2022/11/02 05:05:18;;;;;;;16.00;15.10;;;10.40;92.60;;;;;;5029273;28;20591;-76
2022/11/02 05:07:45;;;;;;;19.10;17.90;;;10.40;92.60;;;;;;5029468;28;20456;-75
2022/11/02 05:10:12;;;;;;;17.83;16.90;;;10.40;92.70;;;;;;5029547;28;20702;-75
2022/11/02 05:12:39;;;;;;;30.73;29.17;;;10.40;92.40;;;;;;5025731;28;20547;-75
2022/11/02 05:15:07;;;;;;;28.90;27.40;;;10.40;92.30;;;;;;5026236;28;20521;-75
2022/11/02 05:17:34;;;;;;;25.20;23.63;;;10.30;92.50;;;;;;5027764;28;20550;-75
2022/11/02 05:20:01;;;;;;;16.47;15.57;;;10.20;92.90;;;;;;5028844;28;20464;-75
2022/11/02 05:22:30;;;;;;;18.38;17.10;;;10.20;92.90;;;;;;5027842;28;20470;-74
2022/11/02 05:24:57;;;;;;;17.80;16.80;;;10.30;92.80;;;;;;5028840;28;20672;-74
2022/11/02 05:27:24;;;;;;;22.67;21.40;;;10.20;92.60;;;;;;5029384;28;20557;-75
2022/11/02 05:29:50;;;;;;;20.87;19.50;;;10.20;92.30;;;;;;5023831;28;20462;-79
2022/11/02 05:32:17;;;;;;;17.10;16.20;;;10.20;92.20;;;;;;5027420;28;20464;-73
2022/11/02 05:34:44;;;;;;;22.13;20.97;;;10.20;92.30;;;;;;5028276;28;20480;-75
2022/11/02 05:37:11;;;;;;;18.50;17.30;;;10.10;92.50;;;;;;5028764;28;20505;-76
2022/11/02 05:39:39;;;;;;;18.40;17.40;;;10.10;92.80;;;;;;5025276;28;20193;-75
2022/11/02 05:42:06;;;;;;;17.00;15.80;;;10.10;92.60;;;;;;5028182;28;20547;-75
2022/11/02 05:44:33;;;;;;;30.87;29.13;;;10.10;92.50;;;;;;5027948;28;20471;-75
2022/11/02 05:47:00;;;;;;;20.67;19.27;;;10.10;92.20;;;;;;5027110;28;20877;-78
2022/11/02 05:49:27;;;;;;;37.53;35.83;;;10.20;92.40;;;;;;5028491;28;20550;-74
2022/11/02 05:51:54;;;;;;;21.17;19.57;;;10.10;92.50;;;;;;5029123;28;20471;-74
2022/11/02 05:54:21;;;;;;;13.70;12.80;;;10.10;92.50;;;;;;5027466;28;20487;-74
2022/11/02 05:56:49;;;;;;;17.13;15.70;;;10.20;92.30;;;;;;5026786;28;21025;-72
2022/11/02 05:59:16;;;;;;;15.07;14.10;;;10.10;92.00;;;;;;5025775;28;20554;-76
2022/11/02 06:01:43;;;;;;;28.63;27.03;;;10.10;92.30;;;;;;5026293;28;20462;-77
2022/11/02 06:04:10;;;;;;;19.43;18.43;;;10.10;92.30;;;;;;5023988;28;20545;-77
2022/11/02 06:06:37;;;;;;;20.77;19.17;;;10.00;92.50;;;;;;5023855;28;20506;-80
2022/11/02 06:09:04;;;;;;;15.87;14.57;;;10.10;92.60;;;;;;5027896;28;20463;-77
2022/11/02 06:11:31;;;;;;;16.30;15.37;;;10.10;92.60;;;;;;5018111;28;20542;-77
2022/11/02 06:13:59;;;;;;;23.77;22.23;;;10.10;92.40;;;;;;5021297;28;20558;-77
2022/11/02 06:16:27;;;;;;;30.33;28.83;;;10.20;92.00;;;;;;5024463;28;20475;-78
2022/11/02 06:18:54;;;;;;;31.97;30.33;;;10.20;91.80;;;;;;5022352;28;20463;-78
2022/11/02 06:21:21;;;;;;;29.63;27.67;;;10.20;91.70;;;;;;5024909;28;20466;-76
2022/11/02 06:23:48;;;;;;;19.43;18.20;;;10.20;92.00;;;;;;5023406;28;20579;-77
2022/11/02 06:26:15;;;;;;;18.80;17.70;;;10.20;91.80;;;;;;5021564;28;20481;-77
2022/11/02 06:28:43;;;;;;;30.23;28.63;;;10.30;91.60;;;;;;5027864;28;20549;-78
2022/11/02 06:31:11;;;;;;;26.87;25.47;;;10.30;91.40;;;;;;5028628;28;20458;-77
2022/11/02 06:33:38;;;;;;;17.07;15.90;;;10.30;91.60;;;;;;5027694;28;20850;-75
2022/11/02 06:36:05;;;;;;;21.03;19.73;;;10.40;91.70;;;;;;5026990;28;20861;-78
2022/11/02 06:38:32;;;;;;;16.40;15.20;;;10.40;91.60;;;;;;5024059;28;20657;-78
2022/11/02 06:41:02;;;;;;;27.87;26.17;;;10.50;91.40;;;;;;5020723;28;20487;-78
2022/11/02 06:43:29;;;;;;;14.93;13.83;;;10.60;91.10;;;;;;5027564;28;20977;-80
2022/11/02 06:45:57;;;;;;;35.37;33.47;;;10.70;90.80;;;;;;5028307;28;20476;-80
2022/11/02 06:48:27;;;;;;;16.40;15.50;;;10.80;90.70;;;;;;5024683;28;20464;-78
2022/11/02 06:50:54;;;;;;;18.57;17.27;;;10.90;90.40;;;;;;5025754;28;20459;-84
2022/11/02 06:53:21;;;;;;;32.80;30.90;;;11.00;89.70;;;;;;5022605;28;20499;-81
2022/11/02 06:55:52;;;;;;;24.20;22.67;;;11.10;89.60;;;;;;5024428;28;21058;-77
2022/11/02 06:58:21;;;;;;;18.60;17.30;;;11.20;89.00;;;;;;5024623;28;20460;-77
2022/11/02 07:00:47;;;;;;;28.70;27.27;;;11.20;89.00;;;;;;5028341;28;20460;-77
2022/11/02 07:03:15;;;;;;;17.63;16.53;;;11.20;89.00;;;;;;5022801;28;20451;-77
2022/11/02 07:05:51;;;;;;;31.77;30.23;;;11.30;88.80;;;;;;5023012;28;20486;-77
2022/11/02 07:08:17;;;;;;;16.13;15.10;;;11.40;88.70;;;;;;5027472;28;20459;-77
2022/11/02 07:10:44;;;;;;;29.43;27.83;;;11.40;88.30;;;;;;5027807;28;20452;-77
2022/11/02 07:13:12;;;;;;;34.00;32.10;;;11.40;88.50;;;;;;5015965;28;20487;-77
2022/11/02 07:15:38;;;;;;;23.97;22.47;;;11.50;88.60;;;;;;5028624;28;20982;-77
2022/11/02 07:18:07;;;;;;;21.40;19.90;;;11.70;88.30;;;;;;5024405;28;20555;-77
2022/11/02 07:20:34;;;;;;;28.73;27.17;;;11.70;88.40;;;;;;5027972;28;21216;-77
2022/11/02 07:23:03;;;;;;;29.80;28.20;;;11.70;88.60;;;;;;5027330;28;20555;-77
2022/11/02 07:25:33;;;;;;;20.33;19.23;;;11.80;88.50;;;;;;5028617;28;20456;-77
2022/11/02 07:28:00;;;;;;;30.00;28.17;;;11.90;88.00;;;;;;5028758;28;20972;-77
2022/11/02 07:30:28;;;;;;;15.37;14.37;;;12.00;87.50;;;;;;5028554;28;20540;-77
2022/11/02 07:32:55;;;;;;;29.67;28.10;;;12.10;87.80;;;;;;5031678;28;20515;-77
2022/11/02 07:35:22;;;;;;;30.00;27.90;;;12.10;88.00;;;;;;5031036;28;20562;-77
2022/11/02 07:37:56;;;;;;;22.57;21.07;;;12.30;87.70;;;;;;5034504;28;20456;-77
2022/11/02 07:40:24;;;;;;;20.37;18.77;;;12.50;87.20;;;;;;5029118;28;20962;-77
2022/11/02 07:42:52;;;;;;;21.13;19.60;;;12.60;86.90;;;;;;5028861;28;20570;-77
2022/11/02 07:45:20;;;;;;;27.33;25.83;;;12.70;86.50;;;;;;5027921;28;20482;-77
2022/11/02 07:47:48;;;;;;;30.63;28.83;;;12.80;85.80;;;;;;5028004;28;20470;-77
2022/11/02 07:50:17;;;;;;;27.27;24.57;;;12.90;85.30;;;;;;5027948;28;20987;-77
2022/11/02 07:52:45;;;;;;;20.40;19.17;;;13.10;85.20;;;;;;5027857;28;20480;-77
2022/11/02 07:55:13;;;;;;;22.73;21.10;;;13.10;85.10;;;;;;5025671;28;20491;-77
2022/11/02 07:57:42;;;;;;;34.93;32.97;;;13.20;84.80;;;;;;5025486;28;20559;-77
2022/11/02 08:00:10;;;;;;;20.63;19.10;;;13.30;84.50;;;;;;5023783;28;20459;-77
2022/11/02 08:02:37;;;;;;;27.03;25.47;;;13.50;83.70;;;;;;5026040;28;20559;-77
2022/11/02 08:05:05;;;;;;;29.87;28.07;;;13.70;83.00;;;;;;5027101;28;20887;-77
2022/11/02 08:07:32;;;;;;;32.07;30.07;;;13.80;82.50;;;;;;5027219;28;20543;-77
2022/11/02 08:09:59;;;;;;;29.53;27.87;;;13.90;81.90;;;;;;5025960;28;20982;-77
2022/11/02 08:12:27;;;;;;;27.20;25.50;;;14.10;81.30;;;;;;5025069;28;20893;-77
2022/11/02 08:14:55;;;;;;;42.50;40.50;;;14.30;80.70;;;;;;5026934;28;20575;-77
2022/11/02 08:17:23;;;;;;;38.90;36.80;;;14.50;80.10;;;;;;5027042;28;20460;-77
2022/11/02 08:19:50;;;;;;;33.53;31.93;;;14.60;79.10;;;;;;5030013;28;20467;-77
2022/11/02 08:22:17;;;;;;;29.60;28.00;;;14.70;79.10;;;;;;5029593;28;20550;-77
2022/11/02 08:24:44;;;;;;;31.87;29.67;;;14.80;78.80;;;;;;5029250;28;20466;-77
2022/11/02 08:27:10;;;;;;;31.63;29.93;;;14.90;78.70;;;;;;5028982;28;20455;-77
2022/11/02 08:29:38;;;;;;;27.70;26.10;;;15.00;78.10;;;;;;5027544;28;20613;-77
2022/11/02 08:32:06;;;;;;;27.70;25.80;;;15.10;77.90;;;;;;5029713;28;20987;-77
2022/11/02 08:34:33;;;;;;;28.47;26.67;;;15.20;77.50;;;;;;5029115;28;20543;-77
2022/11/02 08:37:00;;;;;;;31.27;29.63;;;15.30;77.00;;;;;;5031643;28;20577;-77
2022/11/02 08:39:27;;;;;;;38.40;36.50;;;15.40;76.70;;;;;;5021938;28;20555;-77
2022/11/02 08:41:54;;;;;;;30.40;28.50;;;15.40;77.40;;;;;;5025828;28;21051;-77
2022/11/02 08:44:21;;;;;;;28.70;27.30;;;15.40;76.10;;;;;;5027885;28;20575;-77
2022/11/02 08:46:48;;;;;;;29.70;28.10;;;15.50;76.30;;;;;;5030645;28;20494;-77
2022/11/02 08:49:17;;;;;;;24.70;23.20;;;15.50;75.80;;;;;;5028604;28;20555;-77
2022/11/02 08:51:45;;;;;;;27.30;25.90;;;15.50;75.80;;;;;;5014233;28;20467;-77
2022/11/02 08:54:12;;;;;;;25.23;23.53;;;15.40;75.60;;;;;;5028218;28;20467;-77
2022/11/02 08:56:39;;;;;;;24.83;23.63;;;15.10;76.80;;;;;;5029239;28;20483;-77
2022/11/02 08:59:06;;;;;;;39.60;37.50;;;15.20;77.50;;;;;;5029424;28;20544;-77
2022/11/02 09:01:33;;;;;;;27.53;25.60;;;15.30;76.60;;;;;;5028000;28;20464;-77
2022/11/02 09:03:59;;;;;;;29.90;28.03;;;15.40;76.60;;;;;;5027476;28;21049;-77
2022/11/02 09:06:28;;;;;;;32.93;31.40;;;15.50;76.40;;;;;;5028213;28;20546;-77
2022/11/02 09:08:55;;;;;;;40.00;37.93;;;15.60;75.80;;;;;;5027857;28;20889;-77
2022/11/02 09:11:22;;;;;;;26.70;25.10;;;15.60;76.90;;;;;;5027228;28;20460;-77
2022/11/02 09:13:49;;;;;;;31.07;29.27;;;15.70;76.50;;;;;;5019288;28;20460;-77
2022/11/02 09:16:15;;;;;;;45.40;42.87;;;15.90;76.00;;;;;;5028555;28;21049;-77
2022/11/02 09:18:42;;;;;;;30.40;28.70;;;16.10;75.30;;;;;;5028037;28;21160;-77
2022/11/02 09:21:09;;;;;;;29.53;27.97;;;16.20;74.60;;;;;;5029143;28;20540;-77
2022/11/02 09:23:37;;;;;;;34.30;32.23;;;16.30;73.80;;;;;;5026447;28;20477;-77
2022/11/02 09:26:04;;;;;;;31.43;29.90;;;16.10;73.50;;;;;;5029417;28;20554;-77
2022/11/02 09:28:31;;;;;;;38.73;36.63;;;16.10;73.80;;;;;;5026709;28;20461;-77
2022/11/02 09:30:58;;;;;;;28.70;27.10;;;16.10;74.10;;;;;;5027140;28;20539;-77
2022/11/02 09:33:25;;;;;;;33.40;31.73;;;16.30;73.80;;;;;;5026649;28;20471;-77
2022/11/02 09:35:52;;;;;;;35.60;34.00;;;16.30;73.70;;;;;;5028989;28;20857;-77
2022/11/02 09:38:19;;;;;;;28.10;26.70;;;16.50;73.00;;;;;;5027683;28;20545;-77
2022/11/02 09:40:55;;;;;;;39.50;37.30;;;16.50;73.20;;;;;;5029761;28;20555;-77
2022/11/02 09:43:31;;;;;;;34.43;32.27;;;16.60;72.00;;;;;;5027937;28;20464;-77
2022/11/02 09:46:01;;;;;;;38.63;36.37;;;16.70;71.60;;;;;;5028142;28;20563;-77
2022/11/02 09:48:31;;;;;;;42.53;40.40;;;16.70;70.70;;;;;;5022011;28;20559;-77
2022/11/02 09:51:06;;;;;;;33.30;31.13;;;16.80;70.10;;;;;;5024579;28;20567;-77
2022/11/02 09:53:43;;;;;;;28.93;27.30;;;16.90;69.50;;;;;;5022165;28;21025;-77
2022/11/02 09:56:13;;;;;;;39.17;36.07;;;16.80;69.80;;;;;;5029661;28;20484;-77
2022/11/02 09:58:43;;;;;;;37.00;35.00;;;16.80;69.20;;;;;;5030140;28;20594;-77
2022/11/02 10:01:24;;;;;;;31.30;29.47;;;16.70;69.00;;;;;;5025099;28;20460;-77
2022/11/02 10:04:10;;;;;;;38.60;36.70;;;16.70;69.00;;;;;;5028271;28;21397;-77
2022/11/02 10:06:40;;;;;;;33.57;31.50;;;16.80;68.90;;;;;;5026048;28;20607;-77
2022/11/02 10:09:14;;;;;;;26.80;24.93;;;16.80;68.80;;;;;;5027971;28;20502;-77
2022/11/02 10:11:55;;;;;;;29.37;27.67;;;16.90;68.40;;;;;;5026381;28;20459;-77
2022/11/02 10:14:27;;;;;;;29.13;27.40;;;16.90;68.50;;;;;;5027236;28;20479;-77
2022/11/02 10:16:59;;;;;;;34.27;32.07;;;16.80;68.70;;;;;;5031589;28;20480;-77
2022/11/02 10:19:27;;;;;;;36.43;34.60;;;16.90;68.40;;;;;;5029752;28;20452;-77
2022/11/02 10:21:57;;;;;;;31.53;29.47;;;16.90;68.40;;;;;;5026155;28;20486;-77
2022/11/02 10:24:26;;;;;;;30.83;29.20;;;17.00;68.00;;;;;;5027449;28;20543;-77
2022/11/02 10:26:59;;;;;;;35.57;33.30;;;17.00;66.40;;;;;;5026273;28;20480;-77
2022/11/02 10:29:36;;;;;;;35.60;33.20;;;17.00;65.60;;;;;;5027161;28;20552;-77
2022/11/02 10:32:03;;;;;;;31.20;29.37;;;16.90;66.50;;;;;;5024041;28;20462;-77
2022/11/02 10:34:31;;;;;;;34.93;32.80;;;16.90;66.10;;;;;;5025585;28;20547;-77
2022/11/02 10:37:11;;;;;;;41.07;38.80;;;17.00;65.90;;;;;;5024149;28;20567;-77
2022/11/02 10:39:47;;;;;;;36.03;34.07;;;17.00;65.10;;;;;;5026860;28;20460;-77
2022/11/02 10:42:35;;;;;;;39.37;37.30;;;16.70;65.90;;;;;;5028930;28;20534;-77
2022/11/02 10:45:16;;;;;;;32.70;31.00;;;16.80;66.10;;;;;;5027020;28;21205;-77
2022/11/02 10:47:55;;;;;;;33.30;31.50;;;16.80;66.30;;;;;;5028022;28;20460;-77
2022/11/02 10:50:46;;;;;;;36.93;35.17;;;16.80;65.90;;;;;;5022564;28;20586;-77
2022/11/02 10:53:16;;;;;;;46.90;44.33;;;16.80;65.90;;;;;;5009960;28;20547;-77
2022/11/02 10:55:56;;;;;;;35.97;34.03;;;16.80;66.20;;;;;;5024959;28;20907;-77
2022/11/02 10:58:27;;;;;;;41.23;38.83;;;16.70;66.00;;;;;;5024659;28;20559;-77
2022/11/02 11:01:05;;;;;;;46.97;44.20;;;16.70;66.40;;;;;;5025904;28;20498;-77
2022/11/02 11:03:32;;;;;;;46.23;44.03;;;16.70;66.50;;;;;;5027728;28;20547;-77
2022/11/02 11:06:00;;;;;;;33.80;31.90;;;16.60;66.20;;;;;;5024222;28;20476;-77
2022/11/02 11:08:40;;;;;;;43.07;40.67;;;16.60;66.50;;;;;;5026627;28;20456;-77
2022/11/02 11:11:15;;;;;;;34.60;32.50;;;16.60;66.60;;;;;;5026795;28;20538;-77
2022/11/02 11:13:52;;;;;;;31.67;29.87;;;16.60;66.90;;;;;;5025928;28;20463;-77
2022/11/02 11:16:22;;;;;;;45.10;42.90;;;16.50;66.80;;;;;;5027602;28;20578;-77
2022/11/02 11:18:51;;;;;;;30.40;28.63;;;16.50;66.60;;;;;;5025234;28;20539;-77
2022/11/02 11:21:18;;;;;;;34.53;32.23;;;16.50;67.20;;;;;;5026128;28;20542;-77
2022/11/02 11:23:45;;;;;;;36.23;34.43;;;16.40;67.10;;;;;;5024112;28;20456;-77
2022/11/02 11:26:27;;;;;;;36.83;34.83;;;16.50;67.60;;;;;;5028234;28;20478;-77
2022/11/02 11:28:56;;;;;;;37.07;34.63;;;16.50;67.00;;;;;;5023716;28;20459;-77
2022/11/02 11:31:24;;;;;;;35.17;33.57;;;16.50;67.10;;;;;;5025636;28;20544;-77
2022/11/02 11:33:53;;;;;;;41.97;39.53;;;16.50;67.50;;;;;;5017761;28;20995;-77
2022/11/02 11:36:26;;;;;;;31.07;29.47;;;16.60;67.10;;;;;;5028174;28;20803;-77
2022/11/02 11:38:56;;;;;;;36.60;34.60;;;16.60;66.30;;;;;;5020521;28;20452;-77
2022/11/02 11:41:23;;;;;;;32.30;30.30;;;16.50;66.50;;;;;;5026123;28;20468;-77
2022/11/02 11:43:52;;;;;;;30.23;28.63;;;16.40;67.90;;;;;;5028802;28;20460;-77
2022/11/02 11:46:20;;;;;;;32.93;31.30;;;16.40;67.80;;;;;;5028122;28;21011;-77
2022/11/02 11:48:50;;;;;;;29.27;27.57;;;16.50;67.40;;;;;;5027877;28;20486;-77
2022/11/02 11:51:30;;;;;;;35.90;33.63;;;16.60;66.70;;;;;;5028256;28;20479;-77
2022/11/02 11:54:21;;;;;;;39.83;37.70;;;16.60;66.70;;;;;;5028094;28;20821;-77
2022/11/02 11:56:49;;;;;;;36.53;34.10;;;16.80;66.40;;;;;;5031491;28;20483;-77
2022/11/02 11:59:20;;;;;;;43.20;40.37;;;16.80;65.80;;;;;;5030623;28;20538;-77
2022/11/02 12:01:50;;;;;;;31.57;29.83;;;16.80;66.20;;;;;;5031097;28;20471;-77
2022/11/02 12:04:30;;;;;;;37.13;35.03;;;16.90;65.70;;;;;;5031075;28;20784;-77
2022/11/02 12:07:12;;;;;;;32.30;30.17;;;16.90;64.00;;;;;;5028342;28;20961;-77
2022/11/02 12:09:46;;;;;;;41.30;38.70;;;16.80;64.40;;;;;;5028436;28;20602;-76
2022/11/02 12:12:22;;;;;;;39.97;37.63;;;16.60;64.30;;;;;;5028637;28;20468;-77
2022/11/02 12:14:58;;;;;;;36.10;34.13;;;16.30;64.50;;;;;;5030642;28;20566;-76
2022/11/02 12:17:42;;;;;;;44.33;42.03;;;16.10;64.30;;;;;;5032195;28;21054;-76
2022/11/02 12:20:30;;;;;;;32.43;30.83;;;16.20;63.60;;;;;;5023875;28;20456;-77
2022/11/02 12:23:05;;;;;;;38.43;36.27;;;16.20;63.50;;;;;;5012284;28;20826;-77
2022/11/02 12:25:50;;;;;;;42.83;40.67;;;16.30;63.60;;;;;;5031074;28;20593;-77
2022/11/02 12:28:29;;;;;;;33.07;31.07;;;16.40;63.70;;;;;;5018987;28;20539;-77
2022/11/02 12:31:05;;;;;;;41.43;39.23;;;16.60;63.00;;;;;;5029503;28;20462;-77
2022/11/02 12:33:46;;;;;;;35.80;33.90;;;16.70;62.50;;;;;;5026708;28;20530;-77
2022/11/02 12:36:26;;;;;;;32.73;30.53;;;16.80;62.30;;;;;;5025344;28;20865;-77
2022/11/02 12:39:02;;;;;;;39.47;37.47;;;17.00;61.00;;;;;;5030968;28;20491;-77
2022/11/02 12:41:54;;;;;;;39.40;37.40;;;17.00;60.50;;;;;;5030675;28;21035;-77
2022/11/02 12:44:45;;;;;;;32.93;31.23;;;17.00;60.50;;;;;;5019888;28;20475;-77
2022/11/02 12:47:29;;;;;;;33.63;31.93;;;17.00;60.40;;;;;;5028277;28;21029;-77
2022/11/02 12:50:07;;;;;;;47.00;44.63;;;17.00;60.40;;;;;;5029772;28;21268;-77
2022/11/02 12:52:46;;;;;;;36.57;34.40;;;17.00;60.50;;;;;;5030074;28;20546;-77
2022/11/02 12:55:17;;;;;;;30.60;28.80;;;17.00;60.40;;;;;;5027107;28;20978;-77
2022/11/02 12:57:45;;;;;;;31.90;30.20;;;17.00;60.20;;;;;;5022954;28;20562;-77